Toyofukumaru — JD2177 — position and weather

sailwx.info

Track history (hours):
 
Tides and Currents Weather Stations Pressure Air Temp Water Temp Dewpoint Dewpoint Depression Visibility Wind Speed Wind Dir Waves Ship Positions

Toyofukumaru

Last reported at 2014-Nov-27 19:24 UTC. Time now 2014-Nov-28 15:46 UTC.
Position N 34°31' E 134°39'.

Length 165 m; draft 6.2 m.

Type: Cargo ship. MMSI: 431200688.

Date/timePositionNaut miles runAvg speedWind from/ knotsBaromVisibWave heightAir tempDewpointWater temp
2014-Nov-27 19:24N 34°31' E 134°39'1719.6
2014-Nov-27 18:33N 34°37' E 134°58'1515.2
2014-Nov-27 17:33N 34°22' E 135°01'2019.9
2014-Nov-27 16:34N 34°02' E 135°01'  
2014-Nov-23 19:04N 34°32' E 134°41'1019.6
2014-Nov-23 18:33N 34°35' E 134°52'1111.1
2014-Nov-23 17:34N 34°30' E 135°04'1918.7
2014-Nov-23 16:34N 34°11' E 134°59'  
2014-Nov-19 18:33N 34°33' E 134°45'1717.0
2014-Nov-19 17:33N 34°34' E 135°05'2019.8
2014-Nov-19 16:33N 34°14' E 134°60'2019.9
2014-Nov-19 15:33N 33°54' E 135°01'  
Track history (hours):
 
Tides and Currents Weather Stations Pressure Air Temp Water Temp Dewpoint Dewpoint Depression Visibility Wind Speed Wind Dir Waves Ship Positions

Toyofukumaru

Last reported at 2014-Nov-27 19:24 UTC. Time now 2014-Nov-28 15:46 UTC.
Position N 34°31' E 134°39'.

Length 165 m; draft 6.2 m.

Type: Cargo ship. MMSI: 431200688.

Date/timePositionNaut miles runAvg speedWind from/ knotsBaromVisibWave heightAir tempDewpointWater temp
2014-Nov-27 19:24N 34°31' E 134°39'1719.6
2014-Nov-27 18:33N 34°37' E 134°58'1515.2
2014-Nov-27 17:33N 34°22' E 135°01'2019.9
2014-Nov-27 16:34N 34°02' E 135°01'  
2014-Nov-23 19:04N 34°32' E 134°41'1019.6
2014-Nov-23 18:33N 34°35' E 134°52'1111.1
2014-Nov-23 17:34N 34°30' E 135°04'1918.7
2014-Nov-23 16:34N 34°11' E 134°59'  
2014-Nov-19 18:33N 34°33' E 134°45'1717.0
2014-Nov-19 17:33N 34°34' E 135°05'2019.8
2014-Nov-19 16:33N 34°14' E 134°60'2019.9
2014-Nov-19 15:33N 33°54' E 135°01'  

Dump ship's entire track history